Time;durP1;ratioP1;P1;durP2;ratioP2;P2;SDS_P1;SDS_P2;PMS_P1;PMS_P2;Temp;Humidity;BMP_temperature;BMP_pressure;BME280_temperature;BME280_humidity;BME280_pressure;Samples;Min_cycle;Max_cycle;Signal;HPM_P1;HPM_P2
2023/05/15 05:01:33;;;;;;;11.43;3.80;;;;;;;15.38;66.63;100207.34;4637720;30;20265;-65
2023/05/15 05:54:19;;;;;;;7.20;3.70;;;;;;;16.26;64.93;100225.06;4683980;30;20244;-65
2023/05/15 07:47:42;;;;;;;17.20;10.87;;;;;;;18.24;60.87;100227.09;4776655;29;20772;-64
2023/05/15 19:27:16;;;;;;;12.03;9.87;;;;;;;19.17;59.87;100239.53;3030880;23;20730;-68
2023/05/15 19:29:44;;;;;;;15.40;10.27;;;;;;;19.20;59.89;100235.59;4881794;29;20221;-67
2023/05/15 19:32:12;;;;;;;14.37;10.53;;;;;;;19.16;59.75;100240.59;4881719;29;20240;-67
2023/05/15 19:34:40;;;;;;;13.13;10.50;;;;;;;19.07;60.62;100249.91;4884524;29;20225;-68
2023/05/15 19:37:08;;;;;;;14.27;10.37;;;;;;;18.99;59.95;100246.59;4882828;29;20229;-68
2023/05/15 19:39:36;;;;;;;17.63;11.10;;;;;;;18.88;60.70;100255.28;4883200;29;20799;-68
2023/05/15 19:42:04;;;;;;;15.83;11.10;;;;;;;18.73;60.64;100239.38;4883235;29;20237;-68
2023/05/15 19:44:33;;;;;;;14.80;10.40;;;;;;;18.73;60.97;100252.81;4883070;29;20225;-69
2023/05/15 19:47:00;;;;;;;15.60;11.20;;;;;;;18.56;60.91;100255.00;4878758;29;20570;-70
2023/05/15 19:49:28;;;;;;;16.07;10.47;;;;;;;18.49;61.65;100258.72;4883912;29;20213;-71
2023/05/15 19:51:56;;;;;;;12.90;11.40;;;;;;;18.54;62.67;100251.72;4882230;29;20646;-70
2023/05/15 19:54:24;;;;;;;13.67;11.20;;;;;;;18.54;63.10;100259.78;4884348;29;20899;-71
2023/05/15 19:56:51;;;;;;;15.57;11.63;;;;;;;18.56;63.87;100262.28;4882491;29;20221;-73
2023/05/15 19:59:19;;;;;;;18.47;11.27;;;;;;;18.55;64.41;100265.97;4885226;29;20224;-72
2023/05/15 20:01:48;;;;;;;15.67;11.30;;;;;;;18.54;65.73;100264.31;4882247;29;20614;-70
2023/05/15 20:04:16;;;;;;;15.97;12.17;;;;;;;18.54;65.80;100269.69;4884829;29;20643;-70
2023/05/15 20:06:44;;;;;;;19.10;12.23;;;;;;;18.50;65.97;100271.13;4881540;29;21451;-71
2023/05/15 20:09:11;;;;;;;18.27;12.13;;;;;;;18.50;66.19;100271.13;4879661;29;20671;-71
2023/05/15 20:11:39;;;;;;;15.50;11.93;;;;;;;18.40;66.71;100275.03;4880331;29;20206;-75
2023/05/15 20:14:07;;;;;;;15.83;12.60;;;;;;;18.41;67.34;100278.53;4888148;29;20221;-76
2023/05/15 20:16:35;;;;;;;17.97;11.73;;;;;;;18.50;66.44;100274.63;4889485;29;20216;-76
2023/05/15 20:19:04;;;;;;;21.53;11.37;;;;;;;18.64;66.08;100286.28;4888032;29;20207;-77
2023/05/15 20:21:32;;;;;;;15.50;11.53;;;;;;;18.65;65.34;100287.91;4885269;29;20269;-77
2023/05/15 20:24:00;;;;;;;14.73;12.00;;;;;;;18.68;64.59;100284.81;4885324;29;20747;-75
2023/05/15 20:26:28;;;;;;;16.57;12.00;;;;;;;18.71;64.00;100292.47;4884456;29;20730;-78
2023/05/15 20:28:56;;;;;;;14.00;10.90;;;;;;;18.68;64.11;100292.88;4885509;29;20205;-77
2023/05/15 20:31:24;;;;;;;16.80;11.90;;;;;;;18.70;63.64;100296.19;4881882;29;20229;-76
2023/05/15 20:33:51;;;;;;;16.23;11.50;;;;;;;18.63;64.02;100285.44;4882552;29;20270;-76
2023/05/15 20:36:21;;;;;;;15.80;12.17;;;;;;;18.63;63.56;100290.81;4884113;29;20224;-76
2023/05/15 20:38:49;;;;;;;16.73;12.00;;;;;;;18.68;63.51;100293.69;4880200;29;20245;-79
2023/05/15 20:41:17;;;;;;;18.17;12.73;;;;;;;18.64;63.53;100292.47;4884577;29;20221;-78
2023/05/15 20:43:46;;;;;;;18.47;14.23;;;;;;;18.64;63.31;100297.84;4882891;29;20324;-77
2023/05/15 20:46:14;;;;;;;19.90;14.00;;;;;;;18.62;63.29;100291.84;4884976;29;20719;-78
2023/05/15 20:48:42;;;;;;;15.67;12.93;;;;;;;18.60;62.96;100290.38;4884473;29;20750;-78
2023/05/15 20:51:10;;;;;;;19.67;13.90;;;;;;;18.61;62.85;100292.03;4883349;29;20682;-78
2023/05/15 20:53:39;;;;;;;18.20;14.70;;;;;;;18.63;62.27;100290.81;4885088;29;20738;-77
2023/05/15 20:56:07;;;;;;;20.73;14.90;;;;;;;18.57;62.32;100290.78;4884650;29;20669;-77
2023/05/15 20:58:35;;;;;;;22.87;17.37;;;;;;;18.56;62.32;100286.44;4885237;29;20289;-78
2023/05/15 21:01:02;;;;;;;25.80;17.77;;;;;;;18.52;62.00;100294.06;4883331;29;20704;-77
2023/05/15 21:03:30;;;;;;;24.53;17.37;;;;;;;18.48;61.78;100294.66;4886184;29;20237;-78
2023/05/15 21:05:58;;;;;;;29.37;20.00;;;;;;;18.55;61.36;100292.84;4883770;29;20301;-78
2023/05/15 21:08:27;;;;;;;29.13;18.90;;;;;;;18.50;61.51;100290.75;4881857;29;20343;-76
2023/05/15 21:10:56;;;;;;;26.03;19.30;;;;;;;18.46;61.02;100289.50;4882019;29;20296;-77
2023/05/15 21:13:24;;;;;;;26.57;18.93;;;;;;;18.37;61.15;100288.88;4882316;29;20217;-78
2023/05/15 21:15:54;;;;;;;28.10;20.50;;;;;;;18.45;60.85;100293.22;4883061;29;20217;-78
2023/05/15 21:18:22;;;;;;;26.20;19.60;;;;;;;18.45;60.69;100298.59;4882289;29;20209;-76
2023/05/15 21:20:50;;;;;;;23.57;19.07;;;;;;;18.48;60.70;100302.72;4884369;29;20629;-78
2023/05/15 21:23:20;;;;;;;25.83;18.63;;;;;;;18.38;60.28;100306.63;4882937;29;20242;-78
2023/05/15 21:25:48;;;;;;;26.50;19.37;;;;;;;18.38;60.03;100306.63;4883895;29;20214;-80
2023/05/15 21:28:17;;;;;;;23.63;18.97;;;;;;;18.39;60.12;100310.97;4882873;29;20345;-76
2023/05/15 21:30:45;;;;;;;24.80;18.67;;;;;;;18.40;59.58;100307.25;4882705;29;20282;-79
2023/05/15 21:33:13;;;;;;;23.53;18.20;;;;;;;18.35;59.71;100309.72;4882730;29;20246;-78
2023/05/15 21:35:40;;;;;;;26.77;18.30;;;;;;;18.34;59.88;100307.22;4883574;29;20205;-75
2023/05/15 21:38:08;;;;;;;26.03;19.80;;;;;;;18.38;59.25;100298.56;4883831;29;20219;-77
2023/05/15 21:40:36;;;;;;;28.87;19.50;;;;;;;18.36;59.58;100311.38;4884652;29;20217;-77
2023/05/15 21:43:04;;;;;;;24.30;17.80;;;;;;;18.38;59.20;100320.03;4884251;29;20234;-77
2023/05/15 21:45:33;;;;;;;24.17;18.20;;;;;;;18.26;59.44;100318.16;4882277;29;20224;-77
2023/05/15 21:48:01;;;;;;;28.13;17.27;;;;;;;18.24;59.08;100322.88;4882950;29;20241;-76
2023/05/15 21:50:29;;;;;;;25.20;17.60;;;;;;;18.26;59.05;100315.47;4882154;29;20564;-77
2023/05/15 21:52:57;;;;;;;21.97;18.10;;;;;;;18.12;58.85;100317.25;4881731;29;20245;-78
2023/05/15 21:55:25;;;;;;;23.47;17.60;;;;;;;18.20;58.70;100316.28;4881253;29;20229;-76
2023/05/15 21:57:52;;;;;;;24.03;17.53;;;;;;;18.16;58.72;100321.22;4880544;29;20213;-77
2023/05/15 22:00:20;;;;;;;23.17;16.83;;;;;;;18.17;58.41;100322.88;4882926;29;20223;-76
2023/05/15 22:02:50;;;;;;;19.50;15.20;;;;;;;18.15;58.21;100324.09;4882863;29;20323;-77
2023/05/15 22:05:17;;;;;;;25.73;17.87;;;;;;;18.13;58.09;100323.47;4890090;29;20600;-77
2023/05/15 22:07:45;;;;;;;20.07;15.70;;;;;;;18.04;58.16;100315.59;4888704;29;20921;-76
2023/05/15 22:10:15;;;;;;;22.27;16.27;;;;;;;18.06;57.64;100315.38;4890200;29;20292;-78
2023/05/15 22:12:43;;;;;;;22.30;15.37;;;;;;;18.03;57.68;100335.38;4891045;29;20686;-77
2023/05/15 22:15:13;;;;;;;22.07;16.20;;;;;;;17.96;57.83;100322.97;4891409;29;20217;-78
2023/05/15 22:17:41;;;;;;;21.63;16.37;;;;;;;17.95;57.77;100330.19;4890341;29;20201;-76
2023/05/15 22:20:12;;;;;;;22.53;16.00;;;;;;;17.92;57.95;100329.78;4887242;29;20206;-77
2023/05/15 22:22:41;;;;;;;22.40;15.97;;;;;;;17.93;58.03;100332.28;4887073;29;20230;-77
2023/05/15 22:25:09;;;;;;;24.10;17.10;;;;;;;17.93;57.62;100334.13;4888464;29;20259;-78
2023/05/15 22:27:37;;;;;;;25.43;16.80;;;;;;;17.95;57.23;100335.56;4886955;29;20799;-78
2023/05/15 22:30:07;;;;;;;25.37;17.23;;;;;;;17.89;57.60;100336.38;4887758;29;20216;-78
2023/05/15 22:32:35;;;;;;;25.87;18.40;;;;;;;17.93;57.39;100336.81;4887179;29;20214;-77
2023/05/15 22:35:03;;;;;;;29.23;18.10;;;;;;;17.83;58.03;100336.34;4889867;29;20218;-79
2023/05/15 22:37:32;;;;;;;25.63;18.50;;;;;;;17.89;57.98;100347.09;4890447;29;20300;-80
2023/05/15 22:40:00;;;;;;;27.37;20.17;;;;;;;17.81;58.13;100343.75;4890847;29;20542;-77
2023/05/15 22:42:28;;;;;;;29.10;18.90;;;;;;;17.78;57.93;100344.13;4891018;29;20708;-78
2023/05/15 22:44:56;;;;;;;33.87;21.87;;;;;;;17.74;58.29;100342.88;4888850;29;20293;-77
2023/05/15 22:47:24;;;;;;;28.57;21.03;;;;;;;17.75;58.61;100349.91;4888877;29;20348;-78
2023/05/15 22:49:52;;;;;;;31.67;22.07;;;;;;;17.78;58.91;100352.19;4890965;29;20671;-78
2023/05/15 22:52:20;;;;;;;31.23;22.40;;;;;;;17.81;58.87;100354.47;4895102;29;20289;-78
2023/05/15 22:54:49;;;;;;;31.13;23.87;;;;;;;17.74;58.89;100346.41;4892210;29;20707;-79
2023/05/15 22:57:17;;;;;;;33.63;24.60;;;;;;;17.70;59.32;100341.63;4891379;29;20676;-77
2023/05/15 22:59:45;;;;;;;34.07;24.07;;;;;;;17.67;59.42;100342.84;4891972;29;20230;-77
2023/05/15 23:02:13;;;;;;;38.33;26.03;;;;;;;17.68;59.71;100339.13;4895269;29;20278;-77
2023/05/15 23:04:42;;;;;;;38.10;26.33;;;;;;;17.63;59.86;100337.06;4893802;29;20233;-77
2023/05/15 23:07:09;;;;;;;39.93;28.63;;;;;;;17.59;60.32;100335.75;4891382;29;20237;-77
2023/05/15 23:09:37;;;;;;;43.30;28.23;;;;;;;17.70;60.35;100349.66;4892592;29;20210;-77
2023/05/15 23:12:07;;;;;;;41.77;27.47;;;;;;;17.59;60.31;100351.81;4895233;29;20206;-78
2023/05/15 23:14:35;;;;;;;42.60;29.40;;;;;;;17.62;60.32;100335.38;4901147;29;20225;-79
2023/05/15 23:17:03;;;;;;;45.70;29.97;;;;;;;17.60;60.47;100350.81;4895223;29;20213;-76
2023/05/15 23:19:30;;;;;;;42.33;29.13;;;;;;;17.61;60.93;100336.38;4889145;29;20228;-77
2023/05/15 23:21:58;;;;;;;43.37;31.47;;;;;;;17.62;61.08;100342.59;4890642;29;20747;-78
2023/05/15 23:24:26;;;;;;;50.77;30.73;;;;;;;17.58;61.19;100350.19;4894127;29;20234;-78
2023/05/15 23:26:53;;;;;;;44.73;31.27;;;;;;;17.55;61.18;100347.91;4889587;29;20237;-77
2023/05/15 23:29:23;;;;;;;47.63;31.03;;;;;;;17.63;61.04;100341.59;4893570;29;20213;-77
2023/05/15 23:31:50;;;;;;;49.63;31.17;;;;;;;17.58;61.34;100338.66;4889588;29;20608;-76
2023/05/15 23:34:18;;;;;;;47.43;31.20;;;;;;;17.56;61.39;100349.56;4891834;29;20217;-77
2023/05/15 23:36:46;;;;;;;47.97;30.47;;;;;;;17.62;61.19;100339.94;4891455;29;20296;-77
2023/05/15 23:39:14;;;;;;;43.57;31.23;;;;;;;17.51;61.61;100345.78;4892516;29;20205;-78
2023/05/15 23:41:42;;;;;;;46.37;30.23;;;;;;;17.48;61.89;100346.19;4889976;29;20905;-77
2023/05/15 23:44:10;;;;;;;48.00;32.83;;;;;;;17.56;61.75;100346.06;4888639;29;20256;-77
2023/05/15 23:46:39;;;;;;;41.43;28.60;;;;;;;17.52;61.63;100345.59;4887643;29;20217;-78
2023/05/15 23:49:06;;;;;;;43.90;28.63;;;;;;;17.46;61.94;100346.41;4891863;29;20210;-77
2023/05/15 23:51:34;;;;;;;48.73;30.87;;;;;;;17.50;61.77;100347.63;4888544;29;20217;-78
2023/05/15 23:54:02;;;;;;;45.77;29.80;;;;;;;17.49;62.10;100347.88;4885102;29;20665;-78
2023/05/15 23:56:30;;;;;;;40.40;27.93;;;;;;;17.43;61.94;100351.31;4884200;29;20215;-77
2023/05/15 23:58:58;;;;;;;43.03;29.70;;;;;;;17.38;62.54;100354.59;4884123;29;20230;-78
